sensor_id;sensor_type;location;lat;lon;timestamp;temperature;humidity
40287;DHT22;25998;46.604;13.610;2023-04-24T00:01:35;12.10;99.90
40287;DHT22;25998;46.604;13.610;2023-04-24T00:04:47;12.00;99.90
40287;DHT22;25998;46.604;13.610;2023-04-24T00:07:59;11.90;99.90
40287;DHT22;25998;46.604;13.610;2023-04-24T00:11:10;11.80;99.90
40287;DHT22;25998;46.604;13.610;2023-04-24T00:14:21;11.70;99.90
40287;DHT22;25998;46.604;13.610;2023-04-24T00:17:32;11.60;99.90
40287;DHT22;25998;46.604;13.610;2023-04-24T00:20:43;11.60;99.90
40287;DHT22;25998;46.604;13.610;2023-04-24T00:23:54;11.60;99.90
40287;DHT22;25998;46.604;13.610;2023-04-24T00:27:05;11.60;99.90
40287;DHT22;25998;46.604;13.610;2023-04-24T00:30:16;11.70;99.90
40287;DHT22;25998;46.604;13.610;2023-04-24T00:33:27;11.70;99.90
40287;DHT22;25998;46.604;13.610;2023-04-24T00:36:38;11.90;99.90
40287;DHT22;25998;46.604;13.610;2023-04-24T00:39:48;11.80;99.90
40287;DHT22;25998;46.604;13.610;2023-04-24T00:42:59;11.80;99.90
40287;DHT22;25998;46.604;13.610;2023-04-24T00:46:11;11.70;99.90
40287;DHT22;25998;46.604;13.610;2023-04-24T00:49:22;11.60;99.90
40287;DHT22;25998;46.604;13.610;2023-04-24T00:52:33;11.60;99.90
40287;DHT22;25998;46.604;13.610;2023-04-24T00:55:44;11.60;99.90
40287;DHT22;25998;46.604;13.610;2023-04-24T00:58:55;11.50;99.90
40287;DHT22;25998;46.604;13.610;2023-04-24T01:02:08;11.60;99.90
40287;DHT22;25998;46.604;13.610;2023-04-24T01:05:21;11.70;99.90
40287;DHT22;25998;46.604;13.610;2023-04-24T01:08:33;11.90;99.90
40287;DHT22;25998;46.604;13.610;2023-04-24T01:11:45;11.90;99.90
40287;DHT22;25998;46.604;13.610;2023-04-24T01:14:56;12.00;99.90
40287;DHT22;25998;46.604;13.610;2023-04-24T01:18:07;12.00;99.90
40287;DHT22;25998;46.604;13.610;2023-04-24T01:21:18;11.90;99.90
40287;DHT22;25998;46.604;13.610;2023-04-24T01:24:31;11.90;99.90
40287;DHT22;25998;46.604;13.610;2023-04-24T01:27:43;11.90;99.90
40287;DHT22;25998;46.604;13.610;2023-04-24T01:30:54;11.80;99.90
40287;DHT22;25998;46.604;13.610;2023-04-24T01:34:05;11.70;99.90
40287;DHT22;25998;46.604;13.610;2023-04-24T01:37:16;11.60;99.90
40287;DHT22;25998;46.604;13.610;2023-04-24T01:40:27;11.60;99.90
40287;DHT22;25998;46.604;13.610;2023-04-24T01:43:38;11.50;99.90
40287;DHT22;25998;46.604;13.610;2023-04-24T01:46:50;11.50;99.90
40287;DHT22;25998;46.604;13.610;2023-04-24T01:50:01;11.60;99.90
40287;DHT22;25998;46.604;13.610;2023-04-24T01:53:12;11.70;99.90
40287;DHT22;25998;46.604;13.610;2023-04-24T01:56:22;11.90;99.90
40287;DHT22;25998;46.604;13.610;2023-04-24T01:59:33;12.00;99.90
40287;DHT22;25998;46.604;13.610;2023-04-24T02:02:45;12.00;99.90
40287;DHT22;25998;46.604;13.610;2023-04-24T02:05:56;12.20;99.90
40287;DHT22;25998;46.604;13.610;2023-04-24T02:09:07;12.30;99.90
40287;DHT22;25998;46.604;13.610;2023-04-24T02:12:18;12.30;99.90
40287;DHT22;25998;46.604;13.610;2023-04-24T02:15:29;12.30;99.90
40287;DHT22;25998;46.604;13.610;2023-04-24T02:18:40;12.20;99.90
40287;DHT22;25998;46.604;13.610;2023-04-24T02:21:51;11.90;99.90
40287;DHT22;25998;46.604;13.610;2023-04-24T02:25:02;11.80;99.90
40287;DHT22;25998;46.604;13.610;2023-04-24T02:28:13;11.70;99.90
40287;DHT22;25998;46.604;13.610;2023-04-24T02:31:23;11.70;99.90
40287;DHT22;25998;46.604;13.610;2023-04-24T02:34:35;11.70;99.90
40287;DHT22;25998;46.604;13.610;2023-04-24T02:37:46;11.80;99.90
40287;DHT22;25998;46.604;13.610;2023-04-24T02:40:57;11.90;99.90
40287;DHT22;25998;46.604;13.610;2023-04-24T02:44:08;11.90;99.90
40287;DHT22;25998;46.604;13.610;2023-04-24T02:47:19;12.00;99.90
40287;DHT22;25998;46.604;13.610;2023-04-24T02:50:30;11.90;99.90
40287;DHT22;25998;46.604;13.610;2023-04-24T02:53:42;11.80;99.90
40287;DHT22;25998;46.604;13.610;2023-04-24T02:56:53;11.90;99.90
40287;DHT22;25998;46.604;13.610;2023-04-24T03:00:04;12.00;99.90
40287;DHT22;25998;46.604;13.610;2023-04-24T03:03:17;12.10;99.90
40287;DHT22;25998;46.604;13.610;2023-04-24T03:06:28;12.10;99.90
40287;DHT22;25998;46.604;13.610;2023-04-24T03:09:39;12.20;99.90
40287;DHT22;25998;46.604;13.610;2023-04-24T03:12:50;12.10;99.90
40287;DHT22;25998;46.604;13.610;2023-04-24T03:16:00;12.00;99.90
40287;DHT22;25998;46.604;13.610;2023-04-24T03:19:11;12.10;99.90
40287;DHT22;25998;46.604;13.610;2023-04-24T03:22:23;12.10;99.90
40287;DHT22;25998;46.604;13.610;2023-04-24T03:25:34;11.90;99.90
40287;DHT22;25998;46.604;13.610;2023-04-24T03:28:45;11.70;99.90
40287;DHT22;25998;46.604;13.610;2023-04-24T03:31:55;11.70;99.90
40287;DHT22;25998;46.604;13.610;2023-04-24T03:35:07;11.80;99.90
40287;DHT22;25998;46.604;13.610;2023-04-24T03:38:19;11.80;99.90
40287;DHT22;25998;46.604;13.610;2023-04-24T03:41:30;11.80;99.90
40287;DHT22;25998;46.604;13.610;2023-04-24T03:44:41;11.90;99.90
40287;DHT22;25998;46.604;13.610;2023-04-24T03:47:51;11.90;99.90
40287;DHT22;25998;46.604;13.610;2023-04-24T03:51:02;11.80;99.90
40287;DHT22;25998;46.604;13.610;2023-04-24T03:54:13;11.80;99.90
40287;DHT22;25998;46.604;13.610;2023-04-24T03:57:24;11.60;99.90
40287;DHT22;25998;46.604;13.610;2023-04-24T04:00:35;11.50;99.90
40287;DHT22;25998;46.604;13.610;2023-04-24T04:03:47;11.70;99.90
40287;DHT22;25998;46.604;13.610;2023-04-24T04:06:58;11.80;99.90
40287;DHT22;25998;46.604;13.610;2023-04-24T04:10:11;11.70;99.90
40287;DHT22;25998;46.604;13.610;2023-04-24T04:13:22;11.70;99.90
40287;DHT22;25998;46.604;13.610;2023-04-24T04:16:33;11.80;99.90
40287;DHT22;25998;46.604;13.610;2023-04-24T04:19:44;11.90;99.90
40287;DHT22;25998;46.604;13.610;2023-04-24T04:22:55;11.70;99.90
40287;DHT22;25998;46.604;13.610;2023-04-24T04:26:06;11.70;99.90
40287;DHT22;25998;46.604;13.610;2023-04-24T04:29:17;11.90;99.90
40287;DHT22;25998;46.604;13.610;2023-04-24T04:32:33;11.80;99.90
40287;DHT22;25998;46.604;13.610;2023-04-24T04:35:45;11.80;99.90
40287;DHT22;25998;46.604;13.610;2023-04-24T04:38:59;11.60;99.90
40287;DHT22;25998;46.604;13.610;2023-04-24T04:42:09;11.40;99.90
40287;DHT22;25998;46.604;13.610;2023-04-24T04:45:20;11.40;99.90
40287;DHT22;25998;46.604;13.610;2023-04-24T04:48:31;11.40;99.90
40287;DHT22;25998;46.604;13.610;2023-04-24T04:51:43;11.50;99.90
40287;DHT22;25998;46.604;13.610;2023-04-24T04:54:53;11.40;99.90
40287;DHT22;25998;46.604;13.610;2023-04-24T04:58:04;11.50;99.90
40287;DHT22;25998;46.604;13.610;2023-04-24T05:01:15;11.50;99.90
40287;DHT22;25998;46.604;13.610;2023-04-24T05:04:26;11.40;99.90
40287;DHT22;25998;46.604;13.610;2023-04-24T05:07:37;11.20;99.90
40287;DHT22;25998;46.604;13.610;2023-04-24T05:10:48;11.30;99.90
40287;DHT22;25998;46.604;13.610;2023-04-24T05:13:59;11.50;99.90
40287;DHT22;25998;46.604;13.610;2023-04-24T05:17:10;11.60;99.90
40287;DHT22;25998;46.604;13.610;2023-04-24T05:20:21;11.60;99.90
40287;DHT22;25998;46.604;13.610;2023-04-24T05:23:31;11.40;99.90
40287;DHT22;25998;46.604;13.610;2023-04-24T05:26:42;11.40;99.90
40287;DHT22;25998;46.604;13.610;2023-04-24T05:29:53;11.50;99.90
40287;DHT22;25998;46.604;13.610;2023-04-24T05:33:04;11.60;99.90
40287;DHT22;25998;46.604;13.610;2023-04-24T05:36:15;11.70;99.90
40287;DHT22;25998;46.604;13.610;2023-04-24T05:39:26;11.60;99.90
40287;DHT22;25998;46.604;13.610;2023-04-24T05:42:37;11.70;99.90
40287;DHT22;25998;46.604;13.610;2023-04-24T05:45:47;11.80;99.90
40287;DHT22;25998;46.604;13.610;2023-04-24T05:48:58;11.80;99.90
40287;DHT22;25998;46.604;13.610;2023-04-24T05:52:09;11.70;99.90
40287;DHT22;25998;46.604;13.610;2023-04-24T05:55:20;11.70;99.90
40287;DHT22;25998;46.604;13.610;2023-04-24T05:58:31;11.80;99.90
40287;DHT22;25998;46.604;13.610;2023-04-24T06:01:42;11.80;99.90
40287;DHT22;25998;46.604;13.610;2023-04-24T06:04:53;11.70;99.90
40287;DHT22;25998;46.604;13.610;2023-04-24T06:08:04;11.70;99.90
40287;DHT22;25998;46.604;13.610;2023-04-24T06:11:14;11.80;99.90
40287;DHT22;25998;46.604;13.610;2023-04-24T06:14:25;11.90;99.90
40287;DHT22;25998;46.604;13.610;2023-04-24T06:17:36;11.90;99.90
40287;DHT22;25998;46.604;13.610;2023-04-24T06:20:47;12.00;99.90
40287;DHT22;25998;46.604;13.610;2023-04-24T06:23:58;11.90;99.90
40287;DHT22;25998;46.604;13.610;2023-04-24T06:27:09;11.80;99.90
40287;DHT22;25998;46.604;13.610;2023-04-24T06:30:20;11.70;99.90
40287;DHT22;25998;46.604;13.610;2023-04-24T06:33:30;11.70;99.90
40287;DHT22;25998;46.604;13.610;2023-04-24T06:36:41;11.70;99.90
40287;DHT22;25998;46.604;13.610;2023-04-24T06:39:52;11.60;99.90
40287;DHT22;25998;46.604;13.610;2023-04-24T06:43:03;11.60;99.90
40287;DHT22;25998;46.604;13.610;2023-04-24T06:46:14;11.60;99.90
40287;DHT22;25998;46.604;13.610;2023-04-24T06:49:25;11.70;99.90
40287;DHT22;25998;46.604;13.610;2023-04-24T06:52:36;11.80;99.90
40287;DHT22;25998;46.604;13.610;2023-04-24T06:55:47;11.90;99.90
40287;DHT22;25998;46.604;13.610;2023-04-24T06:58:59;11.90;99.90
40287;DHT22;25998;46.604;13.610;2023-04-24T07:02:09;11.90;99.90
40287;DHT22;25998;46.604;13.610;2023-04-24T07:05:20;11.80;99.90
40287;DHT22;25998;46.604;13.610;2023-04-24T07:08:31;11.90;99.90
40287;DHT22;25998;46.604;13.610;2023-04-24T07:11:43;11.80;99.90
40287;DHT22;25998;46.604;13.610;2023-04-24T07:14:55;11.90;99.90
40287;DHT22;25998;46.604;13.610;2023-04-24T07:18:06;12.00;99.90
40287;DHT22;25998;46.604;13.610;2023-04-24T07:21:16;12.00;99.90
40287;DHT22;25998;46.604;13.610;2023-04-24T07:24:27;11.90;99.90
40287;DHT22;25998;46.604;13.610;2023-04-24T07:27:38;11.90;99.90
40287;DHT22;25998;46.604;13.610;2023-04-24T07:30:49;11.80;99.90
40287;DHT22;25998;46.604;13.610;2023-04-24T07:34:00;11.70;99.90
40287;DHT22;25998;46.604;13.610;2023-04-24T07:37:11;11.70;99.90
40287;DHT22;25998;46.604;13.610;2023-04-24T07:40:22;11.80;99.90
40287;DHT22;25998;46.604;13.610;2023-04-24T07:43:34;11.70;99.90
40287;DHT22;25998;46.604;13.610;2023-04-24T07:46:45;11.60;99.90
40287;DHT22;25998;46.604;13.610;2023-04-24T07:49:55;11.60;99.90
40287;DHT22;25998;46.604;13.610;2023-04-24T07:53:06;11.70;99.90
40287;DHT22;25998;46.604;13.610;2023-04-24T07:56:17;11.60;99.90
40287;DHT22;25998;46.604;13.610;2023-04-24T07:59:28;11.50;99.90
40287;DHT22;25998;46.604;13.610;2023-04-24T08:02:39;11.50;99.90
40287;DHT22;25998;46.604;13.610;2023-04-24T08:05:49;11.50;99.90
40287;DHT22;25998;46.604;13.610;2023-04-24T08:09:01;11.60;99.90
40287;DHT22;25998;46.604;13.610;2023-04-24T08:12:12;11.50;99.90
40287;DHT22;25998;46.604;13.610;2023-04-24T08:15:23;11.40;99.90
40287;DHT22;25998;46.604;13.610;2023-04-24T08:18:34;11.50;99.90
40287;DHT22;25998;46.604;13.610;2023-04-24T08:21:46;11.50;99.90
40287;DHT22;25998;46.604;13.610;2023-04-24T08:24:59;11.50;99.90
40287;DHT22;25998;46.604;13.610;2023-04-24T08:28:10;11.50;99.90
40287;DHT22;25998;46.604;13.610;2023-04-24T08:31:21;11.20;99.90
40287;DHT22;25998;46.604;13.610;2023-04-24T08:34:33;11.10;99.90
40287;DHT22;25998;46.604;13.610;2023-04-24T08:37:44;11.00;99.90
40287;DHT22;25998;46.604;13.610;2023-04-24T08:40:58;10.90;99.90
40287;DHT22;25998;46.604;13.610;2023-04-24T08:44:09;10.80;99.90
40287;DHT22;25998;46.604;13.610;2023-04-24T08:47:22;10.80;99.90
40287;DHT22;25998;46.604;13.610;2023-04-24T08:50:35;10.70;99.90
40287;DHT22;25998;46.604;13.610;2023-04-24T08:53:46;10.60;99.90
40287;DHT22;25998;46.604;13.610;2023-04-24T08:57:02;10.70;99.90
40287;DHT22;25998;46.604;13.610;2023-04-24T09:00:14;10.70;99.90
40287;DHT22;25998;46.604;13.610;2023-04-24T09:03:27;10.70;99.90
40287;DHT22;25998;46.604;13.610;2023-04-24T09:06:39;10.60;99.90
40287;DHT22;25998;46.604;13.610;2023-04-24T09:09:51;10.60;99.90
40287;DHT22;25998;46.604;13.610;2023-04-24T09:13:02;10.50;99.90
40287;DHT22;25998;46.604;13.610;2023-04-24T09:16:13;10.60;99.90
40287;DHT22;25998;46.604;13.610;2023-04-24T09:19:25;10.70;99.90
40287;DHT22;25998;46.604;13.610;2023-04-24T09:22:36;10.70;99.90
40287;DHT22;25998;46.604;13.610;2023-04-24T09:25:54;10.50;99.90
40287;DHT22;25998;46.604;13.610;2023-04-24T09:29:05;10.40;99.90
40287;DHT22;25998;46.604;13.610;2023-04-24T09:32:20;10.60;99.90
40287;DHT22;25998;46.604;13.610;2023-04-24T09:35:36;10.30;99.90
40287;DHT22;25998;46.604;13.610;2023-04-24T09:38:47;10.30;99.90
40287;DHT22;25998;46.604;13.610;2023-04-24T09:41:57;10.30;99.90
40287;DHT22;25998;46.604;13.610;2023-04-24T09:45:12;10.10;99.90
40287;DHT22;25998;46.604;13.610;2023-04-24T09:48:41;10.20;99.90
40287;DHT22;25998;46.604;13.610;2023-04-24T09:51:52;10.20;99.90
40287;DHT22;25998;46.604;13.610;2023-04-24T09:55:14;10.30;99.90
40287;DHT22;25998;46.604;13.610;2023-04-24T09:58:27;10.50;99.90
40287;DHT22;25998;46.604;13.610;2023-04-24T10:01:38;10.60;99.90
40287;DHT22;25998;46.604;13.610;2023-04-24T10:04:56;10.70;99.90
40287;DHT22;25998;46.604;13.610;2023-04-24T10:08:11;10.70;99.90
40287;DHT22;25998;46.604;13.610;2023-04-24T10:11:22;10.70;99.90
40287;DHT22;25998;46.604;13.610;2023-04-24T10:14:33;10.80;99.90
40287;DHT22;25998;46.604;13.610;2023-04-24T10:17:45;10.90;99.90
40287;DHT22;25998;46.604;13.610;2023-04-24T10:21:02;11.20;99.90
40287;DHT22;25998;46.604;13.610;2023-04-24T10:24:17;11.20;99.90
40287;DHT22;25998;46.604;13.610;2023-04-24T10:27:31;11.10;99.90
40287;DHT22;25998;46.604;13.610;2023-04-24T10:30:43;11.10;99.90
40287;DHT22;25998;46.604;13.610;2023-04-24T10:33:55;11.20;99.90
40287;DHT22;25998;46.604;13.610;2023-04-24T10:37:06;11.10;99.90
40287;DHT22;25998;46.604;13.610;2023-04-24T10:40:18;10.90;99.90
40287;DHT22;25998;46.604;13.610;2023-04-24T10:43:29;11.00;99.90
40287;DHT22;25998;46.604;13.610;2023-04-24T10:46:45;10.90;99.90
40287;DHT22;25998;46.604;13.610;2023-04-24T10:49:59;10.90;99.90
40287;DHT22;25998;46.604;13.610;2023-04-24T10:53:21;10.90;99.90
40287;DHT22;25998;46.604;13.610;2023-04-24T10:56:37;11.00;99.90
40287;DHT22;25998;46.604;13.610;2023-04-24T11:00:09;11.10;99.90
40287;DHT22;25998;46.604;13.610;2023-04-24T11:03:29;11.30;99.90
40287;DHT22;25998;46.604;13.610;2023-04-24T11:06:40;11.20;99.90
40287;DHT22;25998;46.604;13.610;2023-04-24T11:09:58;11.20;99.90
40287;DHT22;25998;46.604;13.610;2023-04-24T11:13:15;11.20;99.90
40287;DHT22;25998;46.604;13.610;2023-04-24T11:16:29;11.10;99.90
40287;DHT22;25998;46.604;13.610;2023-04-24T11:19:40;11.10;99.90
40287;DHT22;25998;46.604;13.610;2023-04-24T11:22:53;11.30;99.90
40287;DHT22;25998;46.604;13.610;2023-04-24T11:26:26;11.50;99.90
40287;DHT22;25998;46.604;13.610;2023-04-24T11:29:58;11.70;99.90
40287;DHT22;25998;46.604;13.610;2023-04-24T11:33:11;11.80;99.90
40287;DHT22;25998;46.604;13.610;2023-04-24T11:36:22;11.90;99.90
40287;DHT22;25998;46.604;13.610;2023-04-24T11:39:37;11.90;99.90
40287;DHT22;25998;46.604;13.610;2023-04-24T11:42:49;11.90;99.90
40287;DHT22;25998;46.604;13.610;2023-04-24T11:46:00;11.90;99.90
40287;DHT22;25998;46.604;13.610;2023-04-24T11:49:12;11.80;99.90
40287;DHT22;25998;46.604;13.610;2023-04-24T11:52:23;11.80;99.90
40287;DHT22;25998;46.604;13.610;2023-04-24T11:55:34;11.70;99.90
40287;DHT22;25998;46.604;13.610;2023-04-24T11:58:45;11.70;99.90
40287;DHT22;25998;46.604;13.610;2023-04-24T12:01:57;11.60;99.90
40287;DHT22;25998;46.604;13.610;2023-04-24T12:05:08;11.50;99.90
40287;DHT22;25998;46.604;13.610;2023-04-24T12:08:29;11.40;99.90
40287;DHT22;25998;46.604;13.610;2023-04-24T12:11:53;11.30;99.90
40287;DHT22;25998;46.604;13.610;2023-04-24T12:15:08;11.40;99.90
40287;DHT22;25998;46.604;13.610;2023-04-24T12:18:22;11.40;99.90
40287;DHT22;25998;46.604;13.610;2023-04-24T12:21:33;11.50;99.90
40287;DHT22;25998;46.604;13.610;2023-04-24T12:25:00;11.50;99.90
40287;DHT22;25998;46.604;13.610;2023-04-24T12:28:12;11.50;99.90
40287;DHT22;25998;46.604;13.610;2023-04-24T12:31:23;11.50;99.90
40287;DHT22;25998;46.604;13.610;2023-04-24T12:34:34;11.60;99.90
40287;DHT22;25998;46.604;13.610;2023-04-24T12:37:45;11.60;99.90
40287;DHT22;25998;46.604;13.610;2023-04-24T12:41:07;11.80;99.90
40287;DHT22;25998;46.604;13.610;2023-04-24T12:44:18;11.80;99.90
40287;DHT22;25998;46.604;13.610;2023-04-24T12:47:30;11.90;99.90
40287;DHT22;25998;46.604;13.610;2023-04-24T12:50:42;12.00;99.90
40287;DHT22;25998;46.604;13.610;2023-04-24T12:53:54;12.10;99.90
40287;DHT22;25998;46.604;13.610;2023-04-24T12:57:04;12.10;99.90
40287;DHT22;25998;46.604;13.610;2023-04-24T13:00:16;12.00;99.90
40287;DHT22;25998;46.604;13.610;2023-04-24T13:03:26;12.10;99.90
40287;DHT22;25998;46.604;13.610;2023-04-24T13:06:37;12.10;99.90
40287;DHT22;25998;46.604;13.610;2023-04-24T13:09:49;12.10;99.90
40287;DHT22;25998;46.604;13.610;2023-04-24T13:13:00;12.00;99.90
40287;DHT22;25998;46.604;13.610;2023-04-24T13:16:11;11.90;99.90
40287;DHT22;25998;46.604;13.610;2023-04-24T13:19:24;12.00;99.90
40287;DHT22;25998;46.604;13.610;2023-04-24T13:22:37;12.00;99.90
40287;DHT22;25998;46.604;13.610;2023-04-24T13:25:47;12.00;99.90
40287;DHT22;25998;46.604;13.610;2023-04-24T13:28:58;11.90;99.90
40287;DHT22;25998;46.604;13.610;2023-04-24T13:32:10;11.80;99.90
40287;DHT22;25998;46.604;13.610;2023-04-24T13:35:20;11.70;99.90
40287;DHT22;25998;46.604;13.610;2023-04-24T13:38:31;11.70;99.90
40287;DHT22;25998;46.604;13.610;2023-04-24T13:41:43;11.70;99.90
40287;DHT22;25998;46.604;13.610;2023-04-24T13:44:53;11.70;99.90
40287;DHT22;25998;46.604;13.610;2023-04-24T13:48:04;11.70;99.90
40287;DHT22;25998;46.604;13.610;2023-04-24T13:51:15;11.60;99.90
40287;DHT22;25998;46.604;13.610;2023-04-24T13:54:26;11.60;99.90
40287;DHT22;25998;46.604;13.610;2023-04-24T13:57:37;11.60;99.90
40287;DHT22;25998;46.604;13.610;2023-04-24T14:00:48;11.50;99.90
40287;DHT22;25998;46.604;13.610;2023-04-24T14:03:59;11.50;99.90
40287;DHT22;25998;46.604;13.610;2023-04-24T14:07:10;11.60;99.90
40287;DHT22;25998;46.604;13.610;2023-04-24T14:10:21;11.60;99.90
40287;DHT22;25998;46.604;13.610;2023-04-24T14:13:32;11.60;99.90
40287;DHT22;25998;46.604;13.610;2023-04-24T14:16:43;11.60;99.90
40287;DHT22;25998;46.604;13.610;2023-04-24T14:19:54;11.60;99.90
40287;DHT22;25998;46.604;13.610;2023-04-24T14:23:06;11.60;99.90
40287;DHT22;25998;46.604;13.610;2023-04-24T14:26:17;11.30;99.90
40287;DHT22;25998;46.604;13.610;2023-04-24T14:29:28;11.20;99.90
40287;DHT22;25998;46.604;13.610;2023-04-24T14:32:39;11.30;99.90
40287;DHT22;25998;46.604;13.610;2023-04-24T14:35:50;11.20;99.90
40287;DHT22;25998;46.604;13.610;2023-04-24T14:39:01;11.10;99.90
40287;DHT22;25998;46.604;13.610;2023-04-24T14:42:16;10.90;99.90
40287;DHT22;25998;46.604;13.610;2023-04-24T14:45:28;10.80;99.90
40287;DHT22;25998;46.604;13.610;2023-04-24T14:48:39;10.90;99.90
40287;DHT22;25998;46.604;13.610;2023-04-24T14:51:50;10.80;99.90
40287;DHT22;25998;46.604;13.610;2023-04-24T14:55:01;11.00;99.90
40287;DHT22;25998;46.604;13.610;2023-04-24T14:58:12;11.10;99.90
40287;DHT22;25998;46.604;13.610;2023-04-24T15:01:26;11.20;99.90
40287;DHT22;25998;46.604;13.610;2023-04-24T15:04:37;11.20;99.90
40287;DHT22;25998;46.604;13.610;2023-04-24T15:07:48;11.30;99.90
40287;DHT22;25998;46.604;13.610;2023-04-24T15:10:58;11.30;99.90
40287;DHT22;25998;46.604;13.610;2023-04-24T15:14:09;11.50;99.90
40287;DHT22;25998;46.604;13.610;2023-04-24T15:17:20;11.50;99.90
40287;DHT22;25998;46.604;13.610;2023-04-24T15:20:31;11.50;99.90
40287;DHT22;25998;46.604;13.610;2023-04-24T15:23:42;11.50;99.90
40287;DHT22;25998;46.604;13.610;2023-04-24T15:26:53;11.50;99.90
40287;DHT22;25998;46.604;13.610;2023-04-24T15:30:05;11.40;99.90
40287;DHT22;25998;46.604;13.610;2023-04-24T15:33:16;11.60;99.90
40287;DHT22;25998;46.604;13.610;2023-04-24T15:36:27;11.50;99.90
40287;DHT22;25998;46.604;13.610;2023-04-24T15:39:38;11.50;99.90
40287;DHT22;25998;46.604;13.610;2023-04-24T15:42:48;11.60;99.90
40287;DHT22;25998;46.604;13.610;2023-04-24T15:46:00;11.70;99.90
40287;DHT22;25998;46.604;13.610;2023-04-24T15:49:12;11.70;99.90
40287;DHT22;25998;46.604;13.610;2023-04-24T15:52:22;11.70;99.90
40287;DHT22;25998;46.604;13.610;2023-04-24T15:55:34;11.70;99.90
40287;DHT22;25998;46.604;13.610;2023-04-24T15:58:45;11.80;99.90
40287;DHT22;25998;46.604;13.610;2023-04-24T16:01:59;11.90;99.90
40287;DHT22;25998;46.604;13.610;2023-04-24T16:05:10;11.80;99.90
40287;DHT22;25998;46.604;13.610;2023-04-24T16:08:21;11.80;99.90
40287;DHT22;25998;46.604;13.610;2023-04-24T16:11:33;11.80;99.90
40287;DHT22;25998;46.604;13.610;2023-04-24T16:14:45;11.70;99.90
40287;DHT22;25998;46.604;13.610;2023-04-24T16:17:56;11.50;99.90
40287;DHT22;25998;46.604;13.610;2023-04-24T16:21:08;11.30;99.90
40287;DHT22;25998;46.604;13.610;2023-04-24T16:24:19;11.20;99.90
40287;DHT22;25998;46.604;13.610;2023-04-24T16:27:30;11.30;99.90
40287;DHT22;25998;46.604;13.610;2023-04-24T16:30:44;11.20;99.90
40287;DHT22;25998;46.604;13.610;2023-04-24T16:33:57;11.30;99.90
40287;DHT22;25998;46.604;13.610;2023-04-24T16:37:08;11.30;99.90
40287;DHT22;25998;46.604;13.610;2023-04-24T16:40:21;11.00;99.90
40287;DHT22;25998;46.604;13.610;2023-04-24T16:43:32;10.90;99.90
40287;DHT22;25998;46.604;13.610;2023-04-24T16:46:43;10.80;99.90
40287;DHT22;25998;46.604;13.610;2023-04-24T16:49:54;10.90;99.90
40287;DHT22;25998;46.604;13.610;2023-04-24T16:53:05;10.80;99.90
40287;DHT22;25998;46.604;13.610;2023-04-24T16:56:16;10.80;99.90
40287;DHT22;25998;46.604;13.610;2023-04-24T16:59:27;10.80;99.90
40287;DHT22;25998;46.604;13.610;2023-04-24T17:02:38;10.90;99.90
40287;DHT22;25998;46.604;13.610;2023-04-24T17:05:50;11.00;99.90
40287;DHT22;25998;46.604;13.610;2023-04-24T17:09:01;11.20;99.90
40287;DHT22;25998;46.604;13.610;2023-04-24T17:12:13;11.20;99.90
40287;DHT22;25998;46.604;13.610;2023-04-24T17:15:24;11.10;99.90
40287;DHT22;25998;46.604;13.610;2023-04-24T17:18:35;11.10;99.90
40287;DHT22;25998;46.604;13.610;2023-04-24T17:21:49;11.10;99.90
40287;DHT22;25998;46.604;13.610;2023-04-24T17:25:00;11.00;99.90
40287;DHT22;25998;46.604;13.610;2023-04-24T17:28:23;10.90;99.90
40287;DHT22;25998;46.604;13.610;2023-04-24T17:31:34;10.90;99.90
40287;DHT22;25998;46.604;13.610;2023-04-24T17:34:45;10.90;99.90
40287;DHT22;25998;46.604;13.610;2023-04-24T17:37:57;10.70;99.90
40287;DHT22;25998;46.604;13.610;2023-04-24T17:41:08;10.70;99.90
40287;DHT22;25998;46.604;13.610;2023-04-24T17:44:19;10.60;99.90
40287;DHT22;25998;46.604;13.610;2023-04-24T17:47:30;10.70;99.90
40287;DHT22;25998;46.604;13.610;2023-04-24T17:50:42;10.70;99.90
40287;DHT22;25998;46.604;13.610;2023-04-24T17:53:53;10.70;99.90
40287;DHT22;25998;46.604;13.610;2023-04-24T17:57:04;10.70;99.90
40287;DHT22;25998;46.604;13.610;2023-04-24T18:00:15;10.80;99.90
40287;DHT22;25998;46.604;13.610;2023-04-24T18:03:29;10.80;99.90
40287;DHT22;25998;46.604;13.610;2023-04-24T18:06:40;10.80;99.90
40287;DHT22;25998;46.604;13.610;2023-04-24T18:09:51;10.80;99.90
40287;DHT22;25998;46.604;13.610;2023-04-24T18:13:03;10.90;99.90
40287;DHT22;25998;46.604;13.610;2023-04-24T18:16:14;10.80;99.90
40287;DHT22;25998;46.604;13.610;2023-04-24T18:19:25;10.50;99.90
40287;DHT22;25998;46.604;13.610;2023-04-24T18:22:36;10.40;99.90
40287;DHT22;25998;46.604;13.610;2023-04-24T18:25:47;10.30;99.90
40287;DHT22;25998;46.604;13.610;2023-04-24T18:28:57;10.20;99.90
40287;DHT22;25998;46.604;13.610;2023-04-24T18:32:08;10.00;99.90
40287;DHT22;25998;46.604;13.610;2023-04-24T18:35:20;10.20;99.90
40287;DHT22;25998;46.604;13.610;2023-04-24T18:38:31;10.30;99.90
40287;DHT22;25998;46.604;13.610;2023-04-24T18:41:42;10.30;99.90
40287;DHT22;25998;46.604;13.610;2023-04-24T18:44:53;10.40;99.90
40287;DHT22;25998;46.604;13.610;2023-04-24T18:48:05;10.40;99.90
40287;DHT22;25998;46.604;13.610;2023-04-24T18:51:16;10.40;99.90
40287;DHT22;25998;46.604;13.610;2023-04-24T18:54:27;10.10;99.90
40287;DHT22;25998;46.604;13.610;2023-04-24T18:57:38;9.80;99.90
40287;DHT22;25998;46.604;13.610;2023-04-24T19:00:48;9.70;99.90
40287;DHT22;25998;46.604;13.610;2023-04-24T19:04:00;9.80;99.90
40287;DHT22;25998;46.604;13.610;2023-04-24T19:07:11;9.80;99.90
40287;DHT22;25998;46.604;13.610;2023-04-24T19:10:22;9.60;99.90
40287;DHT22;25998;46.604;13.610;2023-04-24T19:13:33;9.50;99.90
40287;DHT22;25998;46.604;13.610;2023-04-24T19:16:44;9.30;99.90
40287;DHT22;25998;46.604;13.610;2023-04-24T19:19:55;9.20;99.90
40287;DHT22;25998;46.604;13.610;2023-04-24T19:23:06;9.40;99.90
40287;DHT22;25998;46.604;13.610;2023-04-24T19:26:17;9.50;99.90
40287;DHT22;25998;46.604;13.610;2023-04-24T19:29:28;9.30;99.90
40287;DHT22;25998;46.604;13.610;2023-04-24T19:32:39;9.30;99.90
40287;DHT22;25998;46.604;13.610;2023-04-24T19:35:49;9.30;99.90
40287;DHT22;25998;46.604;13.610;2023-04-24T19:39:00;9.10;99.90
40287;DHT22;25998;46.604;13.610;2023-04-24T19:42:11;9.10;99.90
40287;DHT22;25998;46.604;13.610;2023-04-24T19:45:22;9.20;99.90
40287;DHT22;25998;46.604;13.610;2023-04-24T19:48:33;9.10;99.90
40287;DHT22;25998;46.604;13.610;2023-04-24T19:51:43;9.10;99.90
40287;DHT22;25998;46.604;13.610;2023-04-24T19:54:54;9.20;99.90